createdAt,value
2022-10-26T00:00:26.024Z,324.58
2022-10-26T00:02:55.047Z,334.48
2022-10-26T00:05:24.633Z,326.65
2022-10-26T00:07:51.426Z,329.73
2022-10-26T00:10:21.637Z,341.77
2022-10-26T00:12:50.923Z,333.15
2022-10-26T00:15:20.810Z,335.67
2022-10-26T00:17:48.429Z,335.55
2022-10-26T00:20:15.396Z,331.30
2022-10-26T00:22:42.087Z,329.40
2022-10-26T00:25:09.046Z,334.65
2022-10-26T00:27:35.904Z,337.42
2022-10-26T00:30:06.525Z,349.92
2022-10-26T00:32:34.323Z,355.03
2022-10-26T00:35:10.509Z,338.60
2022-10-26T00:37:48.159Z,347.98
2022-10-26T00:40:15.075Z,359.20
2022-10-26T00:42:42.252Z,352.77
2022-10-26T00:45:29.938Z,345.52
2022-10-26T00:48:03.233Z,352.02
2022-10-26T00:50:42.706Z,351.17
2022-10-26T00:53:11.160Z,349.52
2022-10-26T00:55:41.637Z,332.17
2022-10-26T00:58:10.273Z,345.98
2022-10-26T01:00:36.791Z,335.83
2022-10-26T01:03:08.120Z,335.58
2022-10-26T01:05:37.662Z,339.83
2022-10-26T01:08:04.691Z,339.55
2022-10-26T01:10:31.759Z,346.63
2022-10-26T01:12:59.344Z,337.83
2022-10-26T01:15:36.915Z,342.13
2022-10-26T01:18:41.824Z,326.30
2022-10-26T01:21:40.507Z,338.55
2022-10-26T01:24:09.985Z,336.02
2022-10-26T01:27:04.006Z,327.83
2022-10-26T01:29:53.624Z,339.95
2022-10-26T01:32:31.429Z,343.20
2022-10-26T01:35:13.195Z,340.88
2022-10-26T01:37:53.193Z,335.60
2022-10-26T01:40:25.540Z,332.80
2022-10-26T01:42:55.061Z,327.45
2022-10-26T01:45:21.916Z,344.05
2022-10-26T01:47:50.004Z,344.80
2022-10-26T01:50:19.633Z,345.63
2022-10-26T01:52:50.542Z,363.42
2022-10-26T01:55:38.866Z,342.75
2022-10-26T01:58:17.914Z,357.20
2022-10-26T02:01:14.623Z,358.33
2022-10-26T02:04:06.678Z,344.58
2022-10-26T02:07:11.887Z,353.85
2022-10-26T02:10:08.981Z,337.67
2022-10-26T02:12:51.748Z,345.10
2022-10-26T02:15:24.730Z,328.43
2022-10-26T02:18:04.060Z,350.65
2022-10-26T02:20:39.511Z,345.80
2022-10-26T02:23:07.993Z,340.52
2022-10-26T02:25:40.241Z,348.65
2022-10-26T02:28:13.056Z,346.40
2022-10-26T02:30:41.013Z,370.60
2022-10-26T02:33:11.809Z,349.25
2022-10-26T02:35:41.595Z,337.70
2022-10-26T02:38:12.757Z,345.55
2022-10-26T02:40:40.121Z,346.33
2022-10-26T02:43:13.505Z,349.77
2022-10-26T02:45:48.314Z,353.20
2022-10-26T02:48:15.443Z,349.73
2022-10-26T02:51:03.655Z,363.63
2022-10-26T02:53:38.970Z,343.83
2022-10-26T02:56:16.426Z,356.20
2022-10-26T02:58:49.436Z,376.13
2022-10-26T03:01:16.433Z,352.95
2022-10-26T03:03:43.043Z,364.33
2022-10-26T03:06:09.644Z,383.90
2022-10-26T03:08:36.312Z,345.25
2022-10-26T03:11:02.862Z,348.37
2022-10-26T03:13:29.380Z,355.85
2022-10-26T03:15:57.613Z,362.92
2022-10-26T03:18:24.175Z,347.63
2022-10-26T03:20:50.708Z,339.95
2022-10-26T03:23:17.304Z,344.90
2022-10-26T03:25:43.857Z,346.53
2022-10-26T03:28:10.528Z,347.70
2022-10-26T03:30:37.078Z,344.83
2022-10-26T03:33:03.677Z,354.95
2022-10-26T03:35:30.332Z,358.23
2022-10-26T03:37:56.944Z,360.38
2022-10-26T03:40:23.465Z,353.65
2022-10-26T03:42:50.304Z,342.48
2022-10-26T03:45:17.118Z,349.60
2022-10-26T03:47:45.460Z,355.30
2022-10-26T03:50:13.892Z,356.10
2022-10-26T03:52:41.027Z,361.73
2022-10-26T03:55:08.953Z,346.55
2022-10-26T03:57:40.551Z,339.13
2022-10-26T04:00:07.649Z,337.17
2022-10-26T04:02:38.285Z,317.63
2022-10-26T04:05:05.276Z,344.25
2022-10-26T04:07:31.803Z,331.92
2022-10-26T04:09:58.405Z,342.45
2022-10-26T04:12:24.929Z,343.27
2022-10-26T04:14:51.663Z,332.75
2022-10-26T04:17:18.216Z,337.63
2022-10-26T04:19:44.755Z,330.40
2022-10-26T04:22:13.137Z,320.27
2022-10-26T04:24:39.703Z,317.17
2022-10-26T04:27:06.237Z,330.67
2022-10-26T04:29:32.925Z,326.08
2022-10-26T04:31:59.497Z,322.83
2022-10-26T04:34:26.011Z,321.23
2022-10-26T04:36:52.548Z,325.98
2022-10-26T04:39:19.147Z,326.73
2022-10-26T04:41:45.657Z,330.88
2022-10-26T04:44:12.251Z,315.30
2022-10-26T04:46:38.841Z,332.80
2022-10-26T04:49:05.433Z,319.67
2022-10-26T04:51:31.999Z,305.60
2022-10-26T04:53:58.604Z,318.63
2022-10-26T04:56:25.244Z,315.08
2022-10-26T04:58:54.557Z,311.20
2022-10-26T05:01:21.997Z,315.33
2022-10-26T05:03:53.137Z,328.42
2022-10-26T05:06:20.758Z,314.35
2022-10-26T05:08:47.516Z,324.40
2022-10-26T05:11:14.356Z,328.77
2022-10-26T05:13:40.966Z,323.83
2022-10-26T05:16:07.791Z,301.67
2022-10-26T05:18:34.343Z,322.13
2022-10-26T05:21:00.977Z,312.60
2022-10-26T05:23:27.608Z,313.77
2022-10-26T05:25:55.998Z,328.33
2022-10-26T05:28:22.565Z,324.42
2022-10-26T05:30:49.080Z,316.88
2022-10-26T05:33:15.805Z,311.50
2022-10-26T05:35:42.672Z,313.65
2022-10-26T05:38:09.541Z,320.58
2022-10-26T05:40:36.373Z,312.65
2022-10-26T05:43:03.002Z,326.58
2022-10-26T05:45:30.114Z,318.55
2022-10-26T05:47:58.737Z,354.08
2022-10-26T05:50:29.032Z,298.00
2022-10-26T05:52:55.852Z,298.13
2022-10-26T05:55:23.062Z,312.27
2022-10-26T05:57:50.404Z,313.83
2022-10-26T06:00:20.303Z,310.60
2022-10-26T06:03:01.933Z,335.48
2022-10-26T06:05:33.183Z,298.23
2022-10-26T06:07:59.974Z,298.60
2022-10-26T06:10:27.112Z,338.80
2022-10-26T06:12:53.918Z,329.17
2022-10-26T06:15:21.861Z,280.17
2022-10-26T06:17:54.182Z,332.33
2022-10-26T06:20:26.350Z,315.98
2022-10-26T06:23:20.817Z,302.27
2022-10-26T06:26:24.786Z,301.75
2022-10-26T06:29:32.038Z,304.20
2022-10-26T06:31:58.644Z,314.95
2022-10-26T06:34:34.546Z,326.30
2022-10-26T06:37:01.885Z,344.20
2022-10-26T06:39:34.647Z,334.23
2022-10-26T06:42:01.729Z,334.55
2022-10-26T06:44:29.215Z,314.20
2022-10-26T06:47:24.128Z,320.23
2022-10-26T06:50:03.711Z,348.67
2022-10-26T06:52:41.447Z,332.63
2022-10-26T06:55:14.310Z,334.52
2022-10-26T06:57:42.345Z,354.92
2022-10-26T07:00:19.797Z,337.40
2022-10-26T07:02:47.128Z,323.43
2022-10-26T07:05:14.261Z,327.00
2022-10-26T07:07:46.118Z,331.80
2022-10-26T07:10:15.027Z,332.50
2022-10-26T07:12:41.555Z,335.65
2022-10-26T07:15:10.960Z,340.08
2022-10-26T07:17:48.679Z,330.47
2022-10-26T07:20:17.313Z,360.65
2022-10-26T07:22:43.882Z,326.85
2022-10-26T07:25:12.181Z,343.13
2022-10-26T07:27:38.784Z,344.48
2022-10-26T07:30:05.902Z,346.50
2022-10-26T07:32:33.126Z,345.35
2022-10-26T07:34:59.700Z,346.10
2022-10-26T07:37:26.214Z,348.33
2022-10-26T07:39:52.769Z,336.85
2022-10-26T07:42:19.320Z,344.30
2022-10-26T07:44:45.901Z,328.98
2022-10-26T07:47:12.534Z,349.95
2022-10-26T07:49:39.598Z,339.08
2022-10-26T07:52:06.194Z,347.67
2022-10-26T07:54:32.882Z,335.92
2022-10-26T07:56:59.708Z,325.30
2022-10-26T07:59:26.285Z,354.13
2022-10-26T08:01:53.390Z,358.35
2022-10-26T08:04:19.989Z,340.77
2022-10-26T08:06:47.279Z,339.73
2022-10-26T08:09:13.852Z,329.95
2022-10-26T08:11:40.379Z,325.95
2022-10-26T08:14:06.996Z,325.85
2022-10-26T08:16:35.047Z,337.50
2022-10-26T08:19:01.657Z,344.13
2022-10-26T08:21:39.051Z,328.67
2022-10-26T08:24:06.656Z,351.30
2022-10-26T08:26:33.315Z,363.73
2022-10-26T08:28:59.928Z,330.45
2022-10-26T08:31:26.445Z,342.83
2022-10-26T08:33:53.088Z,330.23
2022-10-26T08:36:28.948Z,358.60
2022-10-26T08:38:55.706Z,354.05
2022-10-26T08:42:18.060Z,356.42
2022-10-26T08:44:47.664Z,366.08
2022-10-26T08:49:53.554Z,334.67
2022-10-26T08:52:26.522Z,329.67
2022-10-26T08:55:00.339Z,323.63
2022-10-26T08:57:37.083Z,327.55
2022-10-26T09:00:10.846Z,326.92
2022-10-26T09:02:37.565Z,354.92
2022-10-26T09:05:05.335Z,383.65
2022-10-26T09:07:36.862Z,396.92
2022-10-26T09:10:36.997Z,341.57
2022-10-26T09:13:15.226Z,338.55
2022-10-26T09:16:11.839Z,347.75
2022-10-26T09:19:20.165Z,335.75
2022-10-26T09:22:11.380Z,352.03
2022-10-26T09:24:52.668Z,357.23
2022-10-26T09:27:29.488Z,329.85
2022-10-26T09:29:59.998Z,364.77
2022-10-26T09:32:35.141Z,361.08
2022-10-26T09:35:14.466Z,371.17
2022-10-26T09:37:47.192Z,351.83
2022-10-26T09:40:26.031Z,354.35
2022-10-26T09:42:59.797Z,348.38
2022-10-26T09:45:55.814Z,332.75
2022-10-26T09:48:35.039Z,363.92
2022-10-26T09:51:04.604Z,346.13
2022-10-26T09:53:32.207Z,365.98
2022-10-26T09:56:07.306Z,341.60
2022-10-26T09:58:46.780Z,334.42
2022-10-26T10:01:35.587Z,334.97
2022-10-26T10:04:14.006Z,329.20
2022-10-26T10:06:41.185Z,351.45
2022-10-26T10:09:20.936Z,322.80
2022-10-26T10:11:56.580Z,320.77
2022-10-26T10:14:27.023Z,353.42
2022-10-26T10:16:57.787Z,336.55
2022-10-26T10:19:27.682Z,337.42
2022-10-26T10:21:57.301Z,336.52
2022-10-26T10:24:32.296Z,337.95
2022-10-26T10:27:01.888Z,316.73
2022-10-26T10:29:41.353Z,323.48
2022-10-26T10:32:15.738Z,312.90
2022-10-26T10:34:43.266Z,334.83
2022-10-26T10:37:28.620Z,317.00
2022-10-26T10:40:00.598Z,313.30
2022-10-26T10:42:33.613Z,301.02
2022-10-26T10:45:02.587Z,335.67
2022-10-26T10:47:32.813Z,338.83
2022-10-26T10:50:08.141Z,334.63
2022-10-26T10:52:36.042Z,345.60
2022-10-26T10:55:18.525Z,326.55
2022-10-26T10:58:40.537Z,328.55
2022-10-26T11:01:14.074Z,328.25
2022-10-26T11:04:07.201Z,317.50
2022-10-26T11:06:39.868Z,317.38
2022-10-26T11:09:18.496Z,324.08
2022-10-26T11:11:48.800Z,311.45
2022-10-26T11:14:15.401Z,318.55
2022-10-26T11:17:02.784Z,314.75
2022-10-26T11:19:31.419Z,305.40
2022-10-26T11:21:58.056Z,298.70
2022-10-26T11:24:42.840Z,305.77
2022-10-26T11:27:14.848Z,317.98
2022-10-26T11:30:05.865Z,302.98
2022-10-26T11:32:44.713Z,311.63
2022-10-26T11:35:14.930Z,307.90
2022-10-26T11:37:48.320Z,321.47
2022-10-26T11:40:34.032Z,305.33
2022-10-26T11:43:22.778Z,316.38
2022-10-26T11:46:02.706Z,314.17
2022-10-26T11:48:35.391Z,309.15
2022-10-26T11:51:02.828Z,303.92
2022-10-26T11:53:39.543Z,330.17
2022-10-26T11:56:18.239Z,314.02
2022-10-26T11:58:45.943Z,331.98
2022-10-26T12:01:14.993Z,326.02
2022-10-26T12:03:47.007Z,318.90
2022-10-26T12:06:22.724Z,310.23
2022-10-26T12:09:05.751Z,329.17
2022-10-26T12:11:46.822Z,313.30
2022-10-26T12:14:39.083Z,344.85
2022-10-26T12:17:18.677Z,334.40
2022-10-26T12:19:58.926Z,331.10
2022-10-26T12:22:36.952Z,327.23
2022-10-26T12:25:15.812Z,330.88
2022-10-26T12:27:42.477Z,307.33
2022-10-26T12:30:11.786Z,314.40
2022-10-26T12:32:40.324Z,307.50
2022-10-26T12:35:28.959Z,322.70
2022-10-26T12:37:55.944Z,320.38
2022-10-26T12:40:34.618Z,342.95
2022-10-26T12:43:13.463Z,327.10
2022-10-26T12:45:44.973Z,356.27
2022-10-26T12:48:48.093Z,326.10
2022-10-26T12:51:26.664Z,351.20
2022-10-26T12:54:19.357Z,323.45
2022-10-26T12:56:59.911Z,339.67
2022-10-26T12:59:49.128Z,333.63
2022-10-26T13:02:43.258Z,332.85
2022-10-26T13:05:24.848Z,320.38
2022-10-26T13:07:51.806Z,324.70
2022-10-26T13:10:22.994Z,319.30
2022-10-26T13:12:58.211Z,310.13
2022-10-26T13:15:27.020Z,326.17
2022-10-26T13:18:17.989Z,309.47
2022-10-26T13:21:14.835Z,305.35
2022-10-26T13:23:55.754Z,295.45
2022-10-26T13:26:27.288Z,292.58
2022-10-26T13:29:03.908Z,307.87
2022-10-26T13:31:33.462Z,304.17
2022-10-26T13:34:20.699Z,316.15
2022-10-26T13:36:57.248Z,303.73
2022-10-26T13:39:55.768Z,306.77
2022-10-26T13:42:27.315Z,300.58
2022-10-26T13:45:06.655Z,310.27
2022-10-26T13:47:44.500Z,300.05
2022-10-26T13:50:26.555Z,300.67
2022-10-26T13:53:00.168Z,306.52
2022-10-26T13:55:31.166Z,313.25
2022-10-26T13:58:18.771Z,310.17
2022-10-26T14:01:12.015Z,297.92
2022-10-26T14:03:39.753Z,295.73
2022-10-26T14:06:08.094Z,305.50
2022-10-26T14:08:34.810Z,306.60
2022-10-26T14:11:01.429Z,305.88
2022-10-26T14:13:29.283Z,300.42
2022-10-26T14:15:58.743Z,308.15
2022-10-26T14:18:28.893Z,310.80
2022-10-26T14:21:00.655Z,313.98
2022-10-26T14:23:28.242Z,325.23
2022-10-26T14:25:58.920Z,312.58
2022-10-26T14:28:28.945Z,329.90
2022-10-26T14:31:12.159Z,303.45
2022-10-26T14:33:39.829Z,314.08
2022-10-26T14:36:07.485Z,319.13
2022-10-26T14:38:42.779Z,320.10
2022-10-26T14:41:09.827Z,330.20
2022-10-26T14:43:36.483Z,323.70
2022-10-26T14:46:03.485Z,321.88
2022-10-26T14:48:35.264Z,323.35
2022-10-26T14:51:17.338Z,329.33
2022-10-26T14:53:52.685Z,314.13
2022-10-26T14:56:25.639Z,317.60
2022-10-26T14:58:53.498Z,308.83
2022-10-26T15:01:23.418Z,308.08
2022-10-26T15:04:01.405Z,318.83
2022-10-26T15:06:28.113Z,315.98
2022-10-26T15:09:04.206Z,315.50
2022-10-26T15:11:32.815Z,317.20
2022-10-26T15:14:00.363Z,315.83
2022-10-26T15:16:30.188Z,329.02
2022-10-26T15:19:23.690Z,308.55
2022-10-26T15:21:52.468Z,310.48
2022-10-26T15:24:33.134Z,305.48
2022-10-26T15:27:04.930Z,314.95
2022-10-26T15:29:45.683Z,319.23
2022-10-26T15:32:27.787Z,308.92
2022-10-26T15:35:22.298Z,324.90
2022-10-26T15:37:51.526Z,302.02
2022-10-26T15:40:19.252Z,290.65
2022-10-26T15:42:50.268Z,265.08
2022-10-26T15:45:26.201Z,267.07
2022-10-26T15:47:55.651Z,269.42
2022-10-26T15:50:27.101Z,263.63
2022-10-26T15:53:01.653Z,255.97
2022-10-26T15:55:30.266Z,260.65
2022-10-26T15:57:56.874Z,263.40
2022-10-26T16:00:23.514Z,259.02
2022-10-26T16:02:50.389Z,276.27
2022-10-26T16:05:17.134Z,281.20
2022-10-26T16:07:46.809Z,276.02
2022-10-26T16:10:24.911Z,263.65
2022-10-26T16:12:51.819Z,280.98
2022-10-26T16:15:21.065Z,295.90
2022-10-26T16:17:48.651Z,289.85
2022-10-26T16:20:18.614Z,296.65
2022-10-26T16:22:48.207Z,295.60
2022-10-26T16:25:16.873Z,299.52
2022-10-26T16:27:44.016Z,300.83
2022-10-26T16:30:12.942Z,295.58
2022-10-26T16:32:40.147Z,292.70
2022-10-26T16:35:07.042Z,304.33
2022-10-26T16:37:33.649Z,295.80
2022-10-26T16:40:00.277Z,299.27
2022-10-26T16:42:28.367Z,298.83
2022-10-26T16:44:57.596Z,300.90
2022-10-26T16:47:27.351Z,309.23
2022-10-26T16:49:53.967Z,306.25
2022-10-26T16:52:20.615Z,319.23
2022-10-26T16:54:47.162Z,305.00
2022-10-26T16:57:13.758Z,318.65
2022-10-26T16:59:40.390Z,308.52
2022-10-26T17:02:07.055Z,307.60
2022-10-26T17:04:33.678Z,314.07
2022-10-26T17:07:00.281Z,302.95
2022-10-26T17:09:27.971Z,302.38
2022-10-26T17:11:59.491Z,305.77
2022-10-26T17:14:28.301Z,289.27
2022-10-26T17:16:54.883Z,284.02
2022-10-26T17:19:21.435Z,289.90
2022-10-26T17:21:48.050Z,281.00
2022-10-26T17:24:14.837Z,277.38
2022-10-26T17:26:41.780Z,274.03
2022-10-26T17:29:12.341Z,278.80
2022-10-26T17:31:39.516Z,293.70
2022-10-26T17:34:06.056Z,301.13
2022-10-26T17:36:32.788Z,290.73
2022-10-26T17:39:00.771Z,284.25
2022-10-26T17:41:28.038Z,295.15
2022-10-26T17:43:54.649Z,289.85
2022-10-26T17:46:24.341Z,284.70
2022-10-26T17:48:57.885Z,267.80
2022-10-26T17:51:25.811Z,283.85
2022-10-26T17:53:53.081Z,272.52
2022-10-26T17:56:25.384Z,288.23
2022-10-26T17:58:56.293Z,278.17
2022-10-26T18:01:23.900Z,286.45
2022-10-26T18:03:51.451Z,279.55
2022-10-26T18:06:18.541Z,278.88
2022-10-26T18:08:45.743Z,284.02
2022-10-26T18:11:15.147Z,284.67
2022-10-26T18:13:42.040Z,292.75
2022-10-26T18:16:18.419Z,305.80
2022-10-26T18:18:49.860Z,297.03
2022-10-26T18:21:19.614Z,302.33
2022-10-26T18:23:46.847Z,296.10
2022-10-26T18:26:15.917Z,288.83
2022-10-26T18:28:42.858Z,307.15
2022-10-26T18:31:12.011Z,318.25
2022-10-26T18:33:38.750Z,300.15
2022-10-26T18:36:08.314Z,310.90
2022-10-26T18:38:35.204Z,314.13
2022-10-26T18:41:01.845Z,299.57
2022-10-26T18:43:29.030Z,308.45
2022-10-26T18:46:10.535Z,314.35
2022-10-26T18:48:37.171Z,316.65
2022-10-26T18:51:05.067Z,317.05
2022-10-26T18:53:35.673Z,313.02
2022-10-26T18:56:07.497Z,310.05
2022-10-26T18:58:36.385Z,310.83
2022-10-26T19:01:11.102Z,297.98
2022-10-26T19:03:38.786Z,303.38
2022-10-26T19:06:12.727Z,312.58
2022-10-26T19:08:39.806Z,308.85
2022-10-26T19:11:09.424Z,299.95
2022-10-26T19:13:36.282Z,318.33
2022-10-26T19:16:16.907Z,314.38
2022-10-26T19:18:55.861Z,314.30
2022-10-26T19:21:23.523Z,311.60
2022-10-26T19:23:52.314Z,317.87
2022-10-26T19:26:22.034Z,308.20
2022-10-26T19:28:55.201Z,302.17
2022-10-26T19:31:26.224Z,300.63
2022-10-26T19:33:56.359Z,296.33
2022-10-26T19:36:22.930Z,319.80
2022-10-26T19:38:49.624Z,305.45
2022-10-26T19:41:17.237Z,309.00
2022-10-26T19:43:45.244Z,301.88
2022-10-26T19:46:14.225Z,311.35
2022-10-26T19:48:41.540Z,309.73
2022-10-26T19:51:08.917Z,315.00
2022-10-26T19:53:35.768Z,308.03
2022-10-26T19:56:03.252Z,301.63
2022-10-26T19:58:31.238Z,307.27
2022-10-26T20:01:00.031Z,308.60
2022-10-26T20:03:28.955Z,317.35
2022-10-26T20:05:58.893Z,309.08
2022-10-26T20:08:25.694Z,308.75
2022-10-26T20:10:57.115Z,310.05
2022-10-26T20:13:24.244Z,300.70
2022-10-26T20:15:51.809Z,299.15
2022-10-26T20:18:19.670Z,304.88
2022-10-26T20:20:46.885Z,299.10
2022-10-26T20:23:14.108Z,311.83
2022-10-26T20:25:49.052Z,315.07
2022-10-26T20:28:16.671Z,316.13
2022-10-26T20:30:44.475Z,319.08
2022-10-26T20:33:11.817Z,338.08
2022-10-26T20:35:38.960Z,323.35
2022-10-26T20:38:07.171Z,331.48
2022-10-26T20:40:34.658Z,316.50
2022-10-26T20:43:01.499Z,321.20
2022-10-26T20:45:30.724Z,334.67
2022-10-26T20:47:58.643Z,326.98
2022-10-26T20:50:27.729Z,337.98
2022-10-26T20:53:01.926Z,342.20
2022-10-26T20:55:40.200Z,341.75
2022-10-26T20:58:17.433Z,338.45
2022-10-26T21:00:51.758Z,333.02
2022-10-26T21:03:18.357Z,316.98
2022-10-26T21:05:46.893Z,327.80
2022-10-26T21:08:13.944Z,320.58
2022-10-26T21:10:40.555Z,318.13
2022-10-26T21:13:07.334Z,324.67
2022-10-26T21:15:37.161Z,328.73
2022-10-26T21:18:04.131Z,327.53
2022-10-26T21:20:31.168Z,321.63
2022-10-26T21:22:57.828Z,325.73
2022-10-26T21:25:24.455Z,325.50
2022-10-26T21:27:57.550Z,328.97
2022-10-26T21:30:25.184Z,317.42
2022-10-26T21:32:54.726Z,330.50
2022-10-26T21:35:21.887Z,325.15
2022-10-26T21:37:48.803Z,324.97
2022-10-26T21:40:15.765Z,305.25
2022-10-26T21:42:42.433Z,310.77
2022-10-26T21:45:09.361Z,307.77
2022-10-26T21:47:35.841Z,321.13
2022-10-26T21:50:02.407Z,317.77
2022-10-26T21:52:29.019Z,316.23
2022-10-26T21:54:55.565Z,317.55
2022-10-26T21:57:22.125Z,322.40
2022-10-26T21:59:48.676Z,319.15
2022-10-26T22:02:15.418Z,305.73
2022-10-26T22:04:41.965Z,313.13
2022-10-26T22:07:08.593Z,321.13
2022-10-26T22:09:40.686Z,316.30
2022-10-26T22:12:16.230Z,317.55
2022-10-26T22:14:42.873Z,310.05
2022-10-26T22:17:09.542Z,322.10
2022-10-26T22:19:36.095Z,324.45
2022-10-26T22:22:02.661Z,325.50
2022-10-26T22:24:29.188Z,326.35
2022-10-26T22:26:55.867Z,334.60
2022-10-26T22:29:22.428Z,326.65
2022-10-26T22:31:50.625Z,323.50
2022-10-26T22:34:17.285Z,328.52
2022-10-26T22:36:44.120Z,324.43
2022-10-26T22:39:10.847Z,317.23
2022-10-26T22:41:37.439Z,323.05
2022-10-26T22:44:04.058Z,323.42
2022-10-26T22:46:30.812Z,325.17
2022-10-26T22:48:59.832Z,314.90
2022-10-26T22:51:29.665Z,320.23
2022-10-26T22:53:57.882Z,320.42
2022-10-26T22:58:57.143Z,318.45
2022-10-26T23:01:26.571Z,321.25
2022-10-26T23:03:56.072Z,322.10
2022-10-26T23:06:24.641Z,328.65
2022-10-26T23:08:51.615Z,329.30
2022-10-26T23:11:19.689Z,336.30
2022-10-26T23:13:46.541Z,336.83
2022-10-26T23:16:15.699Z,341.42
2022-10-26T23:18:42.327Z,336.03
2022-10-26T23:21:10.498Z,344.50
2022-10-26T23:23:37.716Z,342.92
2022-10-26T23:26:07.330Z,345.20
2022-10-26T23:28:34.898Z,345.00
2022-10-26T23:31:01.933Z,341.38
2022-10-26T23:33:28.486Z,340.48
2022-10-26T23:35:55.234Z,340.65
2022-10-26T23:38:21.757Z,345.20
2022-10-26T23:40:56.097Z,342.48
2022-10-26T23:43:22.738Z,337.63
2022-10-26T23:45:49.363Z,337.48
2022-10-26T23:48:16.815Z,334.73
2022-10-26T23:50:44.584Z,330.90
2022-10-26T23:53:12.472Z,335.33
2022-10-26T23:55:39.677Z,330.70
2022-10-26T23:58:06.606Z,322.98
